sensor_id;sensor_type;location;lat;lon;timestamp;P1;durP1;ratioP1;P2;durP2;ratioP2
64854;SDS011;51321;50.428;8.378;2023-05-25T00:01:32;4.68;;;2.22;;
64854;SDS011;51321;50.428;8.378;2023-05-25T00:04:13;5.82;;;2.45;;
64854;SDS011;51321;50.428;8.378;2023-05-25T00:06:54;7.88;;;3.10;;
64854;SDS011;51321;50.428;8.378;2023-05-25T00:09:37;8.73;;;2.22;;
64854;SDS011;51321;50.428;8.378;2023-05-25T00:12:21;5.05;;;2.20;;
64854;SDS011;51321;50.428;8.378;2023-05-25T00:15:04;6.82;;;2.75;;
64854;SDS011;51321;50.428;8.378;2023-05-25T00:17:46;5.55;;;2.40;;
64854;SDS011;51321;50.428;8.378;2023-05-25T00:20:27;5.55;;;2.20;;
64854;SDS011;51321;50.428;8.378;2023-05-25T00:23:11;5.63;;;1.88;;
64854;SDS011;51321;50.428;8.378;2023-05-25T00:25:54;4.75;;;2.67;;
64854;SDS011;51321;50.428;8.378;2023-05-25T00:28:35;5.72;;;2.38;;
64854;SDS011;51321;50.428;8.378;2023-05-25T00:31:17;3.00;;;2.00;;
64854;SDS011;51321;50.428;8.378;2023-05-25T00:33:58;2.47;;;2.00;;
64854;SDS011;51321;50.428;8.378;2023-05-25T00:36:39;4.68;;;2.20;;
64854;SDS011;51321;50.428;8.378;2023-05-25T00:39:22;4.90;;;1.95;;
64854;SDS011;51321;50.428;8.378;2023-05-25T00:42:06;5.95;;;2.15;;
64854;SDS011;51321;50.428;8.378;2023-05-25T00:44:47;7.93;;;3.08;;
64854;SDS011;51321;50.428;8.378;2023-05-25T00:47:28;4.90;;;2.17;;
64854;SDS011;51321;50.428;8.378;2023-05-25T00:50:10;4.78;;;2.40;;
64854;SDS011;51321;50.428;8.378;2023-05-25T00:52:55;5.88;;;2.15;;
64854;SDS011;51321;50.428;8.378;2023-05-25T00:55:38;8.65;;;2.38;;
64854;SDS011;51321;50.428;8.378;2023-05-25T00:58:29;6.45;;;2.75;;
64854;SDS011;51321;50.428;8.378;2023-05-25T01:01:13;5.15;;;2.38;;
64854;SDS011;51321;50.428;8.378;2023-05-25T01:03:54;4.55;;;2.45;;
64854;SDS011;51321;50.428;8.378;2023-05-25T01:12:26;5.88;;;2.40;;
64854;SDS011;51321;50.428;8.378;2023-05-25T01:15:10;5.78;;;2.65;;
64854;SDS011;51321;50.428;8.378;2023-05-25T01:17:53;3.47;;;2.00;;
64854;SDS011;51321;50.428;8.378;2023-05-25T01:20:36;6.43;;;1.98;;
64854;SDS011;51321;50.428;8.378;2023-05-25T01:23:19;4.45;;;2.28;;
64854;SDS011;51321;50.428;8.378;2023-05-25T01:26:08;7.00;;;2.65;;
64854;SDS011;51321;50.428;8.378;2023-05-25T01:28:51;6.43;;;2.50;;
64854;SDS011;51321;50.428;8.378;2023-05-25T01:31:33;3.58;;;2.20;;
64854;SDS011;51321;50.428;8.378;2023-05-25T01:34:17;4.32;;;2.17;;
64854;SDS011;51321;50.428;8.378;2023-05-25T01:36:59;5.35;;;2.63;;
64854;SDS011;51321;50.428;8.378;2023-05-25T01:39:42;4.63;;;2.33;;
64854;SDS011;51321;50.428;8.378;2023-05-25T01:42:23;5.18;;;2.55;;
64854;SDS011;51321;50.428;8.378;2023-05-25T01:45:05;4.97;;;2.30;;
64854;SDS011;51321;50.428;8.378;2023-05-25T01:47:48;4.18;;;2.25;;
64854;SDS011;51321;50.428;8.378;2023-05-25T01:50:35;6.47;;;2.38;;
64854;SDS011;51321;50.428;8.378;2023-05-25T01:53:23;5.63;;;1.98;;
64854;SDS011;51321;50.428;8.378;2023-05-25T01:56:10;4.47;;;2.45;;
64854;SDS011;51321;50.428;8.378;2023-05-25T01:58:53;4.63;;;2.50;;
64854;SDS011;51321;50.428;8.378;2023-05-25T02:01:37;8.60;;;2.90;;
64854;SDS011;51321;50.428;8.378;2023-05-25T02:04:20;6.20;;;2.38;;
64854;SDS011;51321;50.428;8.378;2023-05-25T02:07:02;3.72;;;2.55;;
64854;SDS011;51321;50.428;8.378;2023-05-25T02:09:43;5.47;;;2.65;;
64854;SDS011;51321;50.428;8.378;2023-05-25T02:12:26;5.15;;;3.70;;
64854;SDS011;51321;50.428;8.378;2023-05-25T02:15:07;6.78;;;2.78;;
64854;SDS011;51321;50.428;8.378;2023-05-25T02:17:48;6.80;;;2.40;;
64854;SDS011;51321;50.428;8.378;2023-05-25T02:20:29;4.35;;;2.45;;
64854;SDS011;51321;50.428;8.378;2023-05-25T02:23:10;7.13;;;3.10;;
64854;SDS011;51321;50.428;8.378;2023-05-25T02:25:51;4.85;;;2.65;;
64854;SDS011;51321;50.428;8.378;2023-05-25T02:28:36;5.70;;;2.70;;
64854;SDS011;51321;50.428;8.378;2023-05-25T02:31:17;6.57;;;3.88;;
64854;SDS011;51321;50.428;8.378;2023-05-25T02:33:59;6.03;;;3.28;;
64854;SDS011;51321;50.428;8.378;2023-05-25T02:36:41;8.95;;;3.28;;
64854;SDS011;51321;50.428;8.378;2023-05-25T02:39:23;9.02;;;3.03;;
64854;SDS011;51321;50.428;8.378;2023-05-25T02:51:15;4.27;;;2.80;;
64854;SDS011;51321;50.428;8.378;2023-05-25T02:54:05;4.70;;;2.88;;
64854;SDS011;51321;50.428;8.378;2023-05-25T02:56:46;4.50;;;2.60;;
64854;SDS011;51321;50.428;8.378;2023-05-25T02:59:47;8.18;;;2.80;;
64854;SDS011;51321;50.428;8.378;2023-05-25T03:02:31;8.82;;;3.95;;
64854;SDS011;51321;50.428;8.378;2023-05-25T03:05:16;6.97;;;3.33;;
64854;SDS011;51321;50.428;8.378;2023-05-25T03:07:57;5.22;;;2.70;;
64854;SDS011;51321;50.428;8.378;2023-05-25T03:10:39;8.98;;;2.95;;
64854;SDS011;51321;50.428;8.378;2023-05-25T03:13:20;5.68;;;3.05;;
64854;SDS011;51321;50.428;8.378;2023-05-25T03:16:03;7.53;;;3.53;;
64854;SDS011;51321;50.428;8.378;2023-05-25T03:18:45;8.68;;;3.25;;
64854;SDS011;51321;50.428;8.378;2023-05-25T03:21:27;6.32;;;2.80;;
64854;SDS011;51321;50.428;8.378;2023-05-25T03:24:08;7.85;;;3.72;;
64854;SDS011;51321;50.428;8.378;2023-05-25T03:26:51;7.53;;;3.67;;
64854;SDS011;51321;50.428;8.378;2023-05-25T03:29:32;11.18;;;4.47;;
64854;SDS011;51321;50.428;8.378;2023-05-25T03:32:13;5.75;;;3.13;;
64854;SDS011;51321;50.428;8.378;2023-05-25T03:34:54;5.85;;;2.90;;
64854;SDS011;51321;50.428;8.378;2023-05-25T03:37:35;4.10;;;2.60;;
64854;SDS011;51321;50.428;8.378;2023-05-25T03:40:22;8.13;;;3.65;;
64854;SDS011;51321;50.428;8.378;2023-05-25T03:43:05;7.13;;;3.63;;
64854;SDS011;51321;50.428;8.378;2023-05-25T03:45:46;7.07;;;3.20;;
64854;SDS011;51321;50.428;8.378;2023-05-25T03:48:29;6.80;;;3.53;;
64854;SDS011;51321;50.428;8.378;2023-05-25T03:51:10;11.55;;;3.30;;
64854;SDS011;51321;50.428;8.378;2023-05-25T03:53:51;7.57;;;3.17;;
64854;SDS011;51321;50.428;8.378;2023-05-25T03:56:32;5.43;;;3.42;;
64854;SDS011;51321;50.428;8.378;2023-05-25T03:59:14;9.50;;;4.35;;
64854;SDS011;51321;50.428;8.378;2023-05-25T04:01:56;7.25;;;3.20;;
64854;SDS011;51321;50.428;8.378;2023-05-25T04:04:37;13.80;;;3.40;;
64854;SDS011;51321;50.428;8.378;2023-05-25T04:07:21;4.40;;;3.00;;
64854;SDS011;51321;50.428;8.378;2023-05-25T04:10:04;7.10;;;2.67;;
64854;SDS011;51321;50.428;8.378;2023-05-25T04:12:45;6.78;;;3.00;;
64854;SDS011;51321;50.428;8.378;2023-05-25T04:15:29;7.53;;;3.60;;
64854;SDS011;51321;50.428;8.378;2023-05-25T04:18:20;10.52;;;3.70;;
64854;SDS011;51321;50.428;8.378;2023-05-25T04:21:01;5.72;;;3.17;;
64854;SDS011;51321;50.428;8.378;2023-05-25T04:23:42;6.93;;;3.63;;
64854;SDS011;51321;50.428;8.378;2023-05-25T04:26:32;6.43;;;3.58;;
64854;SDS011;51321;50.428;8.378;2023-05-25T04:29:14;12.38;;;7.45;;
64854;SDS011;51321;50.428;8.378;2023-05-25T04:35:47;6.68;;;3.47;;
64854;SDS011;51321;50.428;8.378;2023-05-25T04:38:32;5.20;;;2.70;;
64854;SDS011;51321;50.428;8.378;2023-05-25T04:41:14;3.75;;;3.10;;
64854;SDS011;51321;50.428;8.378;2023-05-25T04:44:15;5.97;;;2.72;;
64854;SDS011;51321;50.428;8.378;2023-05-25T04:47:17;6.82;;;2.90;;
64854;SDS011;51321;50.428;8.378;2023-05-25T04:50:00;5.88;;;3.13;;
64854;SDS011;51321;50.428;8.378;2023-05-25T04:55:23;7.20;;;3.03;;
64854;SDS011;51321;50.428;8.378;2023-05-25T04:58:04;4.70;;;3.33;;
64854;SDS011;51321;50.428;8.378;2023-05-25T05:00:45;8.43;;;3.78;;
64854;SDS011;51321;50.428;8.378;2023-05-25T05:03:26;5.97;;;3.70;;
64854;SDS011;51321;50.428;8.378;2023-05-25T05:06:09;8.35;;;3.90;;
64854;SDS011;51321;50.428;8.378;2023-05-25T05:08:50;8.25;;;4.13;;
64854;SDS011;51321;50.428;8.378;2023-05-25T05:11:31;5.53;;;3.70;;
64854;SDS011;51321;50.428;8.378;2023-05-25T05:14:12;8.57;;;3.90;;
64854;SDS011;51321;50.428;8.378;2023-05-25T05:16:56;9.32;;;3.85;;
64854;SDS011;51321;50.428;8.378;2023-05-25T05:19:37;9.18;;;4.35;;
64854;SDS011;51321;50.428;8.378;2023-05-25T05:22:21;7.07;;;3.95;;
64854;SDS011;51321;50.428;8.378;2023-05-25T05:25:03;5.88;;;3.55;;
64854;SDS011;51321;50.428;8.378;2023-05-25T05:27:45;9.88;;;3.75;;
64854;SDS011;51321;50.428;8.378;2023-05-25T05:30:35;8.75;;;3.97;;
64854;SDS011;51321;50.428;8.378;2023-05-25T05:33:16;9.95;;;4.10;;
64854;SDS011;51321;50.428;8.378;2023-05-25T05:35:58;5.72;;;3.47;;
64854;SDS011;51321;50.428;8.378;2023-05-25T05:38:43;7.43;;;3.85;;
64854;SDS011;51321;50.428;8.378;2023-05-25T05:41:25;10.88;;;4.00;;
64854;SDS011;51321;50.428;8.378;2023-05-25T05:44:06;7.95;;;4.60;;
64854;SDS011;51321;50.428;8.378;2023-05-25T05:46:47;10.27;;;3.97;;
64854;SDS011;51321;50.428;8.378;2023-05-25T05:49:28;7.65;;;3.45;;
64854;SDS011;51321;50.428;8.378;2023-05-25T05:52:10;14.88;;;5.72;;
64854;SDS011;51321;50.428;8.378;2023-05-25T05:54:53;9.15;;;4.03;;
64854;SDS011;51321;50.428;8.378;2023-05-25T06:00:16;11.48;;;4.93;;
64854;SDS011;51321;50.428;8.378;2023-05-25T06:02:58;8.65;;;4.70;;
64854;SDS011;51321;50.428;8.378;2023-05-25T06:05:41;8.00;;;4.05;;
64854;SDS011;51321;50.428;8.378;2023-05-25T06:08:23;12.47;;;5.57;;
64854;SDS011;51321;50.428;8.378;2023-05-25T06:11:06;15.10;;;7.25;;
64854;SDS011;51321;50.428;8.378;2023-05-25T06:13:48;18.60;;;7.80;;
64854;SDS011;51321;50.428;8.378;2023-05-25T06:16:29;13.10;;;6.85;;
64854;SDS011;51321;50.428;8.378;2023-05-25T06:19:10;17.00;;;7.35;;
64854;SDS011;51321;50.428;8.378;2023-05-25T06:21:52;17.20;;;8.00;;
64854;SDS011;51321;50.428;8.378;2023-05-25T06:24:33;13.70;;;7.72;;
64854;SDS011;51321;50.428;8.378;2023-05-25T06:27:15;16.35;;;9.15;;
64854;SDS011;51321;50.428;8.378;2023-05-25T06:29:57;14.77;;;7.88;;
64854;SDS011;51321;50.428;8.378;2023-05-25T06:32:38;15.90;;;7.45;;
64854;SDS011;51321;50.428;8.378;2023-05-25T06:38:03;20.23;;;8.65;;
64854;SDS011;51321;50.428;8.378;2023-05-25T06:40:44;15.95;;;7.68;;
64854;SDS011;51321;50.428;8.378;2023-05-25T06:43:27;18.38;;;6.93;;
64854;SDS011;51321;50.428;8.378;2023-05-25T06:46:32;16.45;;;7.82;;
64854;SDS011;51321;50.428;8.378;2023-05-25T06:49:13;18.58;;;8.15;;
64854;SDS011;51321;50.428;8.378;2023-05-25T06:51:53;12.65;;;6.78;;
64854;SDS011;51321;50.428;8.378;2023-05-25T06:54:35;16.40;;;7.43;;
64854;SDS011;51321;50.428;8.378;2023-05-25T06:57:16;14.80;;;7.07;;
64854;SDS011;51321;50.428;8.378;2023-05-25T06:59:58;12.15;;;6.32;;
64854;SDS011;51321;50.428;8.378;2023-05-25T07:02:39;14.07;;;6.63;;
64854;SDS011;51321;50.428;8.378;2023-05-25T07:05:21;9.25;;;5.28;;
64854;SDS011;51321;50.428;8.378;2023-05-25T07:08:02;15.13;;;6.38;;
64854;SDS011;51321;50.428;8.378;2023-05-25T07:10:43;14.25;;;6.75;;
64854;SDS011;51321;50.428;8.378;2023-05-25T07:13:24;19.10;;;6.13;;
64854;SDS011;51321;50.428;8.378;2023-05-25T07:16:06;18.33;;;7.38;;
64854;SDS011;51321;50.428;8.378;2023-05-25T07:18:48;11.70;;;6.30;;
64854;SDS011;51321;50.428;8.378;2023-05-25T07:21:29;12.52;;;5.10;;
64854;SDS011;51321;50.428;8.378;2023-05-25T07:24:12;10.75;;;5.55;;
64854;SDS011;51321;50.428;8.378;2023-05-25T07:26:53;11.38;;;5.30;;
64854;SDS011;51321;50.428;8.378;2023-05-25T07:29:34;10.60;;;4.90;;
64854;SDS011;51321;50.428;8.378;2023-05-25T07:32:18;13.50;;;5.38;;
64854;SDS011;51321;50.428;8.378;2023-05-25T07:35:00;12.73;;;5.45;;
64854;SDS011;51321;50.428;8.378;2023-05-25T07:37:41;12.80;;;5.22;;
64854;SDS011;51321;50.428;8.378;2023-05-25T07:40:22;9.98;;;5.15;;
64854;SDS011;51321;50.428;8.378;2023-05-25T07:43:03;15.07;;;5.60;;
64854;SDS011;51321;50.428;8.378;2023-05-25T07:45:45;11.68;;;5.75;;
64854;SDS011;51321;50.428;8.378;2023-05-25T07:48:27;10.88;;;5.40;;
64854;SDS011;51321;50.428;8.378;2023-05-25T07:51:08;12.05;;;5.25;;
64854;SDS011;51321;50.428;8.378;2023-05-25T07:53:50;10.88;;;5.38;;
64854;SDS011;51321;50.428;8.378;2023-05-25T07:56:34;11.05;;;5.22;;
64854;SDS011;51321;50.428;8.378;2023-05-25T07:59:15;13.02;;;5.40;;
64854;SDS011;51321;50.428;8.378;2023-05-25T08:01:56;10.43;;;4.70;;
64854;SDS011;51321;50.428;8.378;2023-05-25T08:04:40;11.52;;;4.90;;
64854;SDS011;51321;50.428;8.378;2023-05-25T08:07:21;9.27;;;4.07;;
64854;SDS011;51321;50.428;8.378;2023-05-25T08:10:04;12.65;;;5.50;;
64854;SDS011;51321;50.428;8.378;2023-05-25T08:12:45;16.25;;;5.35;;
64854;SDS011;51321;50.428;8.378;2023-05-25T08:15:26;12.35;;;4.82;;
64854;SDS011;51321;50.428;8.378;2023-05-25T08:18:09;12.40;;;4.25;;
64854;SDS011;51321;50.428;8.378;2023-05-25T08:20:54;14.60;;;4.93;;
64854;SDS011;51321;50.428;8.378;2023-05-25T08:23:35;10.32;;;4.10;;
64854;SDS011;51321;50.428;8.378;2023-05-25T08:26:20;9.75;;;4.20;;
64854;SDS011;51321;50.428;8.378;2023-05-25T08:29:02;9.38;;;4.47;;
64854;SDS011;51321;50.428;8.378;2023-05-25T08:31:43;10.30;;;4.30;;
64854;SDS011;51321;50.428;8.378;2023-05-25T08:34:27;8.27;;;3.78;;
64854;SDS011;51321;50.428;8.378;2023-05-25T08:37:11;9.23;;;4.30;;
64854;SDS011;51321;50.428;8.378;2023-05-25T08:39:52;9.65;;;3.80;;
64854;SDS011;51321;50.428;8.378;2023-05-25T08:42:33;8.88;;;3.83;;
64854;SDS011;51321;50.428;8.378;2023-05-25T08:45:14;7.85;;;3.40;;
64854;SDS011;51321;50.428;8.378;2023-05-25T08:47:57;9.15;;;3.80;;
64854;SDS011;51321;50.428;8.378;2023-05-25T08:50:40;10.05;;;4.45;;
64854;SDS011;51321;50.428;8.378;2023-05-25T08:53:24;9.15;;;3.40;;
64854;SDS011;51321;50.428;8.378;2023-05-25T08:56:09;6.15;;;3.33;;
64854;SDS011;51321;50.428;8.378;2023-05-25T08:58:56;9.63;;;3.92;;
64854;SDS011;51321;50.428;8.378;2023-05-25T09:01:40;8.50;;;3.53;;
64854;SDS011;51321;50.428;8.378;2023-05-25T09:04:25;6.55;;;3.10;;
64854;SDS011;51321;50.428;8.378;2023-05-25T09:07:08;6.78;;;3.38;;
64854;SDS011;51321;50.428;8.378;2023-05-25T09:09:51;8.35;;;3.78;;
64854;SDS011;51321;50.428;8.378;2023-05-25T09:12:33;9.45;;;2.88;;
64854;SDS011;51321;50.428;8.378;2023-05-25T09:15:17;7.63;;;3.63;;
64854;SDS011;51321;50.428;8.378;2023-05-25T09:17:58;5.00;;;3.13;;
64854;SDS011;51321;50.428;8.378;2023-05-25T09:20:41;7.43;;;3.63;;
64854;SDS011;51321;50.428;8.378;2023-05-25T09:23:22;7.55;;;3.25;;
64854;SDS011;51321;50.428;8.378;2023-05-25T09:26:05;6.63;;;2.95;;
64854;SDS011;51321;50.428;8.378;2023-05-25T09:28:47;9.23;;;3.75;;
64854;SDS011;51321;50.428;8.378;2023-05-25T09:31:28;10.45;;;4.03;;
64854;SDS011;51321;50.428;8.378;2023-05-25T09:34:10;10.13;;;3.90;;
64854;SDS011;51321;50.428;8.378;2023-05-25T09:36:52;10.45;;;3.95;;
64854;SDS011;51321;50.428;8.378;2023-05-25T09:39:33;5.32;;;3.17;;
64854;SDS011;51321;50.428;8.378;2023-05-25T09:42:16;6.05;;;3.20;;
64854;SDS011;51321;50.428;8.378;2023-05-25T09:44:57;9.75;;;3.85;;
64854;SDS011;51321;50.428;8.378;2023-05-25T09:47:39;5.82;;;2.63;;
64854;SDS011;51321;50.428;8.378;2023-05-25T09:50:21;7.60;;;3.00;;
64854;SDS011;51321;50.428;8.378;2023-05-25T09:53:02;9.45;;;3.35;;
64854;SDS011;51321;50.428;8.378;2023-05-25T09:55:46;7.63;;;3.80;;
64854;SDS011;51321;50.428;8.378;2023-05-25T09:58:30;7.93;;;3.25;;
64854;SDS011;51321;50.428;8.378;2023-05-25T10:01:15;8.85;;;3.58;;
64854;SDS011;51321;50.428;8.378;2023-05-25T10:03:56;7.45;;;3.33;;
64854;SDS011;51321;50.428;8.378;2023-05-25T10:06:37;5.10;;;2.75;;
64854;SDS011;51321;50.428;8.378;2023-05-25T10:09:19;6.55;;;3.55;;
64854;SDS011;51321;50.428;8.378;2023-05-25T10:14:43;5.93;;;2.47;;
64854;SDS011;51321;50.428;8.378;2023-05-25T10:17:28;5.32;;;2.45;;
64854;SDS011;51321;50.428;8.378;2023-05-25T10:20:13;5.47;;;2.30;;
64854;SDS011;51321;50.428;8.378;2023-05-25T10:22:56;6.72;;;2.35;;
64854;SDS011;51321;50.428;8.378;2023-05-25T10:25:43;5.10;;;2.35;;
64854;SDS011;51321;50.428;8.378;2023-05-25T10:28:26;6.75;;;3.10;;
64854;SDS011;51321;50.428;8.378;2023-05-25T10:31:10;6.15;;;2.67;;
64854;SDS011;51321;50.428;8.378;2023-05-25T10:33:52;8.40;;;3.00;;
64854;SDS011;51321;50.428;8.378;2023-05-25T10:36:35;7.90;;;3.15;;
64854;SDS011;51321;50.428;8.378;2023-05-25T10:41:59;7.22;;;2.92;;
64854;SDS011;51321;50.428;8.378;2023-05-25T10:44:41;7.28;;;3.88;;
64854;SDS011;51321;50.428;8.378;2023-05-25T10:47:24;10.90;;;3.95;;
64854;SDS011;51321;50.428;8.378;2023-05-25T10:50:06;7.07;;;2.63;;
64854;SDS011;51321;50.428;8.378;2023-05-25T10:52:59;4.93;;;3.10;;
64854;SDS011;51321;50.428;8.378;2023-05-25T10:55:42;6.28;;;2.67;;
64854;SDS011;51321;50.428;8.378;2023-05-25T10:58:28;8.27;;;2.95;;
64854;SDS011;51321;50.428;8.378;2023-05-25T11:01:10;5.40;;;2.80;;
64854;SDS011;51321;50.428;8.378;2023-05-25T11:03:55;6.28;;;2.80;;
64854;SDS011;51321;50.428;8.378;2023-05-25T11:12:45;5.22;;;2.85;;
64854;SDS011;51321;50.428;8.378;2023-05-25T11:15:26;9.93;;;3.15;;
64854;SDS011;51321;50.428;8.378;2023-05-25T11:18:13;8.55;;;3.40;;
64854;SDS011;51321;50.428;8.378;2023-05-25T11:23:53;6.55;;;2.63;;
64854;SDS011;51321;50.428;8.378;2023-05-25T11:26:35;6.35;;;3.03;;
64854;SDS011;51321;50.428;8.378;2023-05-25T11:29:19;7.25;;;3.08;;
64854;SDS011;51321;50.428;8.378;2023-05-25T11:32:03;8.05;;;2.55;;
64854;SDS011;51321;50.428;8.378;2023-05-25T11:34:45;7.22;;;2.88;;
64854;SDS011;51321;50.428;8.378;2023-05-25T11:37:29;7.13;;;2.75;;
64854;SDS011;51321;50.428;8.378;2023-05-25T11:40:11;8.00;;;2.78;;
64854;SDS011;51321;50.428;8.378;2023-05-25T11:42:52;7.57;;;3.13;;
64854;SDS011;51321;50.428;8.378;2023-05-25T11:45:34;5.72;;;2.70;;
64854;SDS011;51321;50.428;8.378;2023-05-25T11:48:16;5.07;;;2.33;;
64854;SDS011;51321;50.428;8.378;2023-05-25T11:51:04;9.02;;;3.47;;
64854;SDS011;51321;50.428;8.378;2023-05-25T11:53:47;6.47;;;2.63;;
64854;SDS011;51321;50.428;8.378;2023-05-25T11:56:30;8.23;;;2.97;;
64854;SDS011;51321;50.428;8.378;2023-05-25T11:59:12;4.93;;;2.65;;
64854;SDS011;51321;50.428;8.378;2023-05-25T12:01:56;6.15;;;2.65;;
64854;SDS011;51321;50.428;8.378;2023-05-25T12:04:53;7.85;;;3.22;;
64854;SDS011;51321;50.428;8.378;2023-05-25T12:07:41;10.23;;;3.72;;
64854;SDS011;51321;50.428;8.378;2023-05-25T12:10:26;6.63;;;2.63;;
64854;SDS011;51321;50.428;8.378;2023-05-25T12:13:08;7.25;;;2.50;;
64854;SDS011;51321;50.428;8.378;2023-05-25T12:15:52;10.65;;;3.80;;
64854;SDS011;51321;50.428;8.378;2023-05-25T12:18:35;8.38;;;3.17;;
64854;SDS011;51321;50.428;8.378;2023-05-25T12:21:19;6.40;;;2.97;;
64854;SDS011;51321;50.428;8.378;2023-05-25T12:24:13;7.78;;;3.50;;
64854;SDS011;51321;50.428;8.378;2023-05-25T12:26:57;8.45;;;3.55;;
64854;SDS011;51321;50.428;8.378;2023-05-25T12:29:44;9.95;;;3.70;;
64854;SDS011;51321;50.428;8.378;2023-05-25T12:32:25;4.07;;;2.65;;
64854;SDS011;51321;50.428;8.378;2023-05-25T12:35:06;8.23;;;3.30;;
64854;SDS011;51321;50.428;8.378;2023-05-25T12:37:47;9.75;;;3.42;;
64854;SDS011;51321;50.428;8.378;2023-05-25T12:40:28;6.63;;;2.42;;
64854;SDS011;51321;50.428;8.378;2023-05-25T12:43:13;5.90;;;3.10;;
64854;SDS011;51321;50.428;8.378;2023-05-25T12:45:55;5.72;;;2.70;;
64854;SDS011;51321;50.428;8.378;2023-05-25T12:48:37;5.72;;;2.95;;
64854;SDS011;51321;50.428;8.378;2023-05-25T12:51:21;6.60;;;2.67;;
64854;SDS011;51321;50.428;8.378;2023-05-25T12:56:54;7.10;;;3.08;;
64854;SDS011;51321;50.428;8.378;2023-05-25T12:59:37;6.43;;;3.17;;
64854;SDS011;51321;50.428;8.378;2023-05-25T13:02:19;6.35;;;2.90;;
64854;SDS011;51321;50.428;8.378;2023-05-25T13:05:15;6.28;;;2.90;;
64854;SDS011;51321;50.428;8.378;2023-05-25T13:08:00;4.28;;;2.80;;
64854;SDS011;51321;50.428;8.378;2023-05-25T13:10:41;9.63;;;2.95;;
64854;SDS011;51321;50.428;8.378;2023-05-25T13:13:26;10.13;;;3.38;;
64854;SDS011;51321;50.428;8.378;2023-05-25T13:16:08;5.97;;;3.35;;
64854;SDS011;51321;50.428;8.378;2023-05-25T13:18:49;10.48;;;3.53;;
64854;SDS011;51321;50.428;8.378;2023-05-25T13:21:30;6.40;;;2.85;;
64854;SDS011;51321;50.428;8.378;2023-05-25T13:24:12;6.07;;;2.88;;
64854;SDS011;51321;50.428;8.378;2023-05-25T13:26:54;6.10;;;2.80;;
64854;SDS011;51321;50.428;8.378;2023-05-25T13:29:36;7.50;;;4.15;;
64854;SDS011;51321;50.428;8.378;2023-05-25T13:32:19;7.82;;;3.35;;
64854;SDS011;51321;50.428;8.378;2023-05-25T13:35:00;7.03;;;3.25;;
64854;SDS011;51321;50.428;8.378;2023-05-25T13:37:45;7.47;;;3.40;;
64854;SDS011;51321;50.428;8.378;2023-05-25T13:40:26;8.07;;;3.40;;
64854;SDS011;51321;50.428;8.378;2023-05-25T13:43:07;11.00;;;4.05;;
64854;SDS011;51321;50.428;8.378;2023-05-25T13:45:48;6.53;;;3.22;;
64854;SDS011;51321;50.428;8.378;2023-05-25T13:48:30;5.45;;;3.22;;
64854;SDS011;51321;50.428;8.378;2023-05-25T13:51:12;6.57;;;3.13;;
64854;SDS011;51321;50.428;8.378;2023-05-25T13:53:54;5.18;;;3.00;;
64854;SDS011;51321;50.428;8.378;2023-05-25T13:56:34;4.97;;;2.83;;
64854;SDS011;51321;50.428;8.378;2023-05-25T13:59:16;8.18;;;3.35;;
64854;SDS011;51321;50.428;8.378;2023-05-25T14:01:57;8.40;;;2.95;;
64854;SDS011;51321;50.428;8.378;2023-05-25T14:04:40;11.80;;;3.25;;
64854;SDS011;51321;50.428;8.378;2023-05-25T14:07:21;10.88;;;3.40;;
64854;SDS011;51321;50.428;8.378;2023-05-25T14:10:02;6.32;;;3.08;;
64854;SDS011;51321;50.428;8.378;2023-05-25T14:12:43;7.57;;;3.15;;
64854;SDS011;51321;50.428;8.378;2023-05-25T14:15:24;6.68;;;2.75;;
64854;SDS011;51321;50.428;8.378;2023-05-25T14:18:05;10.45;;;3.05;;
64854;SDS011;51321;50.428;8.378;2023-05-25T14:20:47;7.60;;;2.88;;
64854;SDS011;51321;50.428;8.378;2023-05-25T14:23:28;9.07;;;2.70;;
64854;SDS011;51321;50.428;8.378;2023-05-25T14:26:08;7.85;;;3.30;;
64854;SDS011;51321;50.428;8.378;2023-05-25T14:28:50;6.45;;;3.25;;
64854;SDS011;51321;50.428;8.378;2023-05-25T14:31:31;6.00;;;2.78;;
64854;SDS011;51321;50.428;8.378;2023-05-25T14:34:12;5.13;;;3.17;;
64854;SDS011;51321;50.428;8.378;2023-05-25T14:36:55;7.03;;;3.55;;
64854;SDS011;51321;50.428;8.378;2023-05-25T14:39:36;4.75;;;2.60;;
64854;SDS011;51321;50.428;8.378;2023-05-25T14:42:17;5.63;;;2.58;;
64854;SDS011;51321;50.428;8.378;2023-05-25T14:44:58;6.73;;;2.53;;
64854;SDS011;51321;50.428;8.378;2023-05-25T14:47:39;6.75;;;2.90;;
64854;SDS011;51321;50.428;8.378;2023-05-25T14:50:20;8.27;;;2.83;;
64854;SDS011;51321;50.428;8.378;2023-05-25T14:53:03;4.80;;;2.95;;
64854;SDS011;51321;50.428;8.378;2023-05-25T14:55:45;8.13;;;2.67;;
64854;SDS011;51321;50.428;8.378;2023-05-25T14:58:26;3.63;;;2.20;;
64854;SDS011;51321;50.428;8.378;2023-05-25T15:01:06;5.35;;;2.55;;
64854;SDS011;51321;50.428;8.378;2023-05-25T15:06:30;5.18;;;2.67;;
64854;SDS011;51321;50.428;8.378;2023-05-25T15:09:12;7.22;;;3.45;;
64854;SDS011;51321;50.428;8.378;2023-05-25T15:11:54;5.30;;;2.67;;
64854;SDS011;51321;50.428;8.378;2023-05-25T15:14:36;10.60;;;3.25;;
64854;SDS011;51321;50.428;8.378;2023-05-25T15:17:24;7.75;;;2.97;;
64854;SDS011;51321;50.428;8.378;2023-05-25T15:20:10;5.93;;;2.60;;
64854;SDS011;51321;50.428;8.378;2023-05-25T15:22:52;4.70;;;2.40;;
64854;SDS011;51321;50.428;8.378;2023-05-25T15:28:17;4.97;;;2.42;;
64854;SDS011;51321;50.428;8.378;2023-05-25T15:31:00;5.85;;;2.80;;
64854;SDS011;51321;50.428;8.378;2023-05-25T15:33:41;7.50;;;2.90;;
64854;SDS011;51321;50.428;8.378;2023-05-25T15:36:22;4.22;;;3.10;;
64854;SDS011;51321;50.428;8.378;2023-05-25T15:39:03;7.45;;;3.13;;
64854;SDS011;51321;50.428;8.378;2023-05-25T15:41:48;6.70;;;3.38;;
64854;SDS011;51321;50.428;8.378;2023-05-25T15:44:29;5.47;;;3.00;;
64854;SDS011;51321;50.428;8.378;2023-05-25T15:47:09;7.85;;;3.45;;
64854;SDS011;51321;50.428;8.378;2023-05-25T15:49:50;6.85;;;2.60;;
64854;SDS011;51321;50.428;8.378;2023-05-25T15:52:32;4.53;;;2.67;;
64854;SDS011;51321;50.428;8.378;2023-05-25T15:55:13;5.47;;;2.75;;
64854;SDS011;51321;50.428;8.378;2023-05-25T15:57:55;4.78;;;2.63;;
64854;SDS011;51321;50.428;8.378;2023-05-25T16:00:36;6.32;;;2.80;;
64854;SDS011;51321;50.428;8.378;2023-05-25T16:03:17;6.85;;;3.53;;
64854;SDS011;51321;50.428;8.378;2023-05-25T16:05:58;7.10;;;2.85;;
64854;SDS011;51321;50.428;8.378;2023-05-25T16:08:40;7.65;;;3.60;;
64854;SDS011;51321;50.428;8.378;2023-05-25T16:11:21;7.47;;;2.88;;
64854;SDS011;51321;50.428;8.378;2023-05-25T16:14:04;6.78;;;2.95;;
64854;SDS011;51321;50.428;8.378;2023-05-25T16:16:45;4.85;;;2.80;;
64854;SDS011;51321;50.428;8.378;2023-05-25T16:19:27;6.75;;;2.85;;
64854;SDS011;51321;50.428;8.378;2023-05-25T16:22:09;6.43;;;2.90;;
64854;SDS011;51321;50.428;8.378;2023-05-25T16:24:50;5.45;;;2.80;;
64854;SDS011;51321;50.428;8.378;2023-05-25T16:27:30;6.38;;;2.90;;
64854;SDS011;51321;50.428;8.378;2023-05-25T16:30:13;6.55;;;2.92;;
64854;SDS011;51321;50.428;8.378;2023-05-25T16:32:54;8.38;;;3.30;;
64854;SDS011;51321;50.428;8.378;2023-05-25T16:35:35;5.82;;;2.92;;
64854;SDS011;51321;50.428;8.378;2023-05-25T16:38:16;5.07;;;2.90;;
64854;SDS011;51321;50.428;8.378;2023-05-25T16:40:58;5.32;;;3.08;;
64854;SDS011;51321;50.428;8.378;2023-05-25T16:43:40;5.68;;;3.30;;
64854;SDS011;51321;50.428;8.378;2023-05-25T16:46:24;7.03;;;3.22;;
64854;SDS011;51321;50.428;8.378;2023-05-25T16:49:05;8.25;;;3.33;;
64854;SDS011;51321;50.428;8.378;2023-05-25T16:51:45;4.97;;;2.90;;
64854;SDS011;51321;50.428;8.378;2023-05-25T16:54:26;5.30;;;3.17;;
64854;SDS011;51321;50.428;8.378;2023-05-25T16:57:07;8.82;;;3.63;;
64854;SDS011;51321;50.428;8.378;2023-05-25T16:59:49;7.05;;;3.40;;
64854;SDS011;51321;50.428;8.378;2023-05-25T17:02:32;7.22;;;3.47;;
64854;SDS011;51321;50.428;8.378;2023-05-25T17:05:13;7.28;;;2.72;;
64854;SDS011;51321;50.428;8.378;2023-05-25T17:07:55;9.77;;;4.43;;